Utilizamos cookies propias y de terceros para ofrecer nuestros servicios, recoger información estadística e incluir publicidad. Si continua navegando acepta su instalación y uso. Puede cambiar la configuración u obtener más información en nuestra ACEPTAR | Más información

 INFORMACIÓN METAR y TAF
METAR FOR LECH
ADDS - METARS form results

(0023 UTC 11 December 2019)
Data provider http://aviationweather.gov/metar/data/
 
METAR text: LECH 110000Z AUTO 15001KT 9000 NCD 06/03 Q1022
Conditions at: LECH (CASTELLON , ES) observed 0000 UTC 11 December 2019
Temperature: 6.0°C (43°F)
Dewpoint: 3.0°C (37°F) [RH = 81%]
Pressure (altimeter): 30.18 inches Hg (1022.0 mb)
Winds: from the SSE (150 degrees) at 1 MPH (1 knots; 0.5 m/s)
Visibility: 6 miles ( 9 km)
Ceiling: at least 12,000 feet AGL
Clouds: sky clear below 12,000 feet AGL
Weather: no significant weather observed at this time

METAR text: LECH 102330Z AUTO 00000KT 9999 NCD 06/03 Q1022
Conditions at: LECH (CASTELLON , ES) observed 2330 UTC 10 December 2019
Temperature: 6.0°C (43°F)
Dewpoint: 3.0°C (37°F) [RH = 81%]
Pressure (altimeter): 30.18 inches Hg (1022.0 mb)
Winds: calm
Visibility: 6 or more miles (10+ km)
Ceiling: at least 12,000 feet AGL
Clouds: sky clear below 12,000 feet AGL
Weather: no significant weather observed at this time

 MAPA DE AEROPUERTO

 INFORMACIÓN DE PISTA

 FRECUANCIAS DEL AEROPUERTO

 RADIO AYUDAS DEL AEROPUERTO

© Todos los derechos reservados. Aviso Legal | Política de Privacidad | Política de cookies |